createdAt,value
2019-03-19T00:01:35.318Z,4.77
2019-03-19T00:06:44.206Z,4.97
2019-03-19T00:11:53.145Z,4.76
2019-03-19T00:17:01.977Z,4.98
2019-03-19T00:22:10.851Z,4.77
2019-03-19T00:27:19.697Z,4.68
2019-03-19T00:32:28.608Z,4.70
2019-03-19T00:37:37.476Z,4.95
2019-03-19T00:42:46.373Z,4.97
2019-03-19T00:47:55.406Z,5.59
2019-03-19T00:53:04.338Z,5.54
2019-03-19T00:58:13.179Z,5.75
2019-03-19T01:03:22.060Z,5.03
2019-03-19T01:08:30.973Z,5.46
2019-03-19T01:13:39.924Z,4.80
2019-03-19T01:18:48.803Z,4.42
2019-03-19T01:23:57.653Z,5.14
2019-03-19T01:29:06.563Z,5.09
2019-03-19T01:34:15.414Z,4.89
2019-03-19T01:39:24.291Z,4.88
2019-03-19T01:44:33.181Z,4.95
2019-03-19T01:49:42.092Z,4.59
2019-03-19T01:54:50.975Z,5.19
2019-03-19T01:59:59.887Z,5.69
2019-03-19T02:05:08.761Z,4.88
2019-03-19T02:10:17.618Z,4.85
2019-03-19T02:15:26.528Z,5.14
2019-03-19T02:20:35.381Z,4.86
2019-03-19T02:25:44.241Z,4.69
2019-03-19T02:30:53.091Z,5.22
2019-03-19T02:36:01.973Z,4.73
2019-03-19T02:41:10.835Z,5.13
2019-03-19T02:46:19.765Z,5.06
2019-03-19T02:51:28.638Z,5.38
2019-03-19T02:56:37.594Z,4.61
2019-03-19T03:01:46.466Z,5.41
2019-03-19T03:06:55.385Z,4.65
2019-03-19T03:12:04.294Z,4.95
2019-03-19T03:17:13.183Z,4.98
2019-03-19T03:22:22.112Z,4.40
2019-03-19T03:27:30.978Z,4.80
2019-03-19T03:32:39.878Z,5.09
2019-03-19T03:37:48.754Z,4.54
2019-03-19T03:42:57.660Z,4.94
2019-03-19T03:48:06.529Z,5.17
2019-03-19T03:53:15.537Z,4.83
2019-03-19T03:58:24.409Z,4.89
2019-03-19T04:03:33.323Z,5.04
2019-03-19T04:08:42.253Z,4.44
2019-03-19T04:13:51.127Z,4.83
2019-03-19T04:19:00.052Z,4.36
2019-03-19T04:24:08.930Z,4.33
2019-03-19T04:29:17.858Z,5.03
2019-03-19T04:34:26.750Z,4.32
2019-03-19T04:39:35.629Z,4.65
2019-03-19T04:44:44.516Z,5.19
2019-03-19T04:49:53.394Z,4.45
2019-03-19T04:55:02.335Z,4.44
2019-03-19T05:00:11.177Z,4.72
2019-03-19T05:05:20.093Z,4.43
2019-03-19T05:10:28.953Z,4.55
2019-03-19T05:15:37.883Z,4.55
2019-03-19T05:20:46.756Z,4.95
2019-03-19T05:25:55.655Z,5.95
2019-03-19T05:31:04.571Z,5.04
2019-03-19T05:36:13.445Z,4.65
2019-03-19T05:41:22.346Z,4.78
2019-03-19T05:46:31.257Z,4.72
2019-03-19T05:51:40.128Z,4.94
2019-03-19T05:56:49.068Z,4.83
2019-03-19T06:01:57.916Z,5.29
2019-03-19T06:07:06.848Z,4.84
2019-03-19T06:12:15.767Z,4.74
2019-03-19T06:17:24.671Z,4.73
2019-03-19T06:22:33.529Z,5.00
2019-03-19T06:27:42.385Z,4.71
2019-03-19T06:32:51.309Z,5.35
2019-03-19T06:38:00.194Z,4.77
2019-03-19T06:43:09.104Z,4.04
2019-03-19T06:48:18.104Z,3.55
2019-03-19T06:53:26.987Z,4.22
2019-03-19T06:58:35.891Z,4.00
2019-03-19T07:03:44.767Z,3.91
2019-03-19T07:08:53.632Z,3.96
2019-03-19T07:14:02.505Z,3.84
2019-03-19T07:19:11.402Z,3.45
2019-03-19T07:24:20.309Z,3.34
2019-03-19T07:29:29.235Z,3.37
2019-03-19T07:34:38.117Z,3.43
2019-03-19T07:39:47.036Z,3.69
2019-03-19T07:44:55.912Z,3.77
2019-03-19T07:50:04.827Z,3.72
2019-03-19T07:55:13.706Z,3.64
2019-03-19T08:00:22.650Z,3.67
2019-03-19T08:05:33.383Z,3.80
2019-03-19T08:10:39.908Z,4.12
2019-03-19T08:15:48.800Z,3.94
2019-03-19T08:20:57.688Z,4.19
2019-03-19T08:26:06.615Z,4.17
2019-03-19T08:31:15.562Z,3.93
2019-03-19T08:36:24.433Z,4.01
2019-03-19T08:41:33.344Z,3.76
2019-03-19T08:46:42.239Z,4.27
2019-03-19T08:51:51.196Z,4.60
2019-03-19T08:57:00.056Z,4.15
2019-03-19T09:02:09.022Z,4.46
2019-03-19T09:07:20.037Z,4.33
2019-03-19T09:12:26.395Z,4.77
2019-03-19T09:17:35.316Z,5.59
2019-03-19T09:22:44.239Z,5.06
2019-03-19T09:27:53.103Z,6.71
2019-03-19T09:33:02.136Z,6.58
2019-03-19T09:38:11.027Z,7.47
2019-03-19T09:43:19.939Z,7.68
2019-03-19T09:48:28.838Z,7.71
2019-03-19T09:53:37.740Z,8.84
2019-03-19T09:58:46.715Z,8.83
2019-03-19T10:03:55.584Z,8.11
2019-03-19T10:09:04.471Z,8.29
2019-03-19T10:14:13.360Z,8.13
2019-03-19T10:19:22.231Z,9.34
2019-03-19T10:24:31.134Z,9.52
2019-03-19T10:29:39.992Z,7.34
2019-03-19T10:34:48.866Z,7.05
2019-03-19T10:39:57.755Z,6.79
2019-03-19T10:45:06.671Z,7.19
2019-03-19T10:50:15.561Z,7.06
2019-03-19T10:55:24.517Z,6.79
2019-03-19T11:00:33.399Z,7.35
2019-03-19T11:05:42.307Z,8.31
2019-03-19T11:10:51.171Z,8.91
2019-03-19T11:16:00.025Z,9.36
2019-03-19T11:21:08.908Z,9.45
2019-03-19T11:26:17.824Z,10.50
2019-03-19T11:31:26.711Z,10.28
2019-03-19T11:36:35.609Z,9.50
2019-03-19T11:41:44.483Z,9.60
2019-03-19T11:46:53.675Z,9.92
2019-03-19T11:52:02.291Z,8.94
2019-03-19T11:57:11.173Z,9.77
2019-03-19T12:02:25.979Z,8.39
2019-03-19T12:07:28.475Z,8.34
2019-03-19T12:12:37.336Z,9.96
2019-03-19T12:17:48.646Z,9.17
2019-03-19T12:22:54.672Z,11.63
2019-03-19T12:28:03.911Z,11.12
2019-03-19T12:33:12.780Z,11.77
2019-03-19T12:38:21.703Z,10.32
2019-03-19T12:43:30.552Z,10.46
2019-03-19T12:48:39.447Z,10.76
2019-03-19T12:53:48.325Z,9.52
2019-03-19T12:58:57.226Z,10.09
2019-03-19T13:04:06.085Z,9.94
2019-03-19T13:09:14.973Z,10.97
2019-03-19T13:14:23.812Z,10.39
2019-03-19T13:19:32.692Z,10.01
2019-03-19T13:24:41.559Z,9.17
2019-03-19T13:29:50.457Z,9.16
2019-03-19T13:34:59.340Z,7.12
2019-03-19T13:40:08.225Z,6.07
2019-03-19T13:45:17.095Z,5.33
2019-03-19T13:50:25.986Z,4.41
2019-03-19T13:55:34.840Z,4.02
2019-03-19T14:00:43.759Z,3.76
2019-03-19T14:05:52.659Z,3.30
2019-03-19T14:11:01.553Z,3.14
2019-03-19T14:16:10.415Z,2.90
2019-03-19T14:21:19.277Z,3.34
2019-03-19T14:26:28.162Z,3.43
2019-03-19T14:31:37.054Z,3.18
2019-03-19T14:36:45.958Z,3.42
2019-03-19T14:41:54.946Z,3.72
2019-03-19T14:47:03.812Z,3.51
2019-03-19T14:52:12.736Z,3.67
2019-03-19T14:57:21.609Z,3.39
2019-03-19T15:02:30.503Z,3.30
2019-03-19T15:07:39.337Z,3.10
2019-03-19T15:12:48.228Z,3.12
2019-03-19T15:17:57.104Z,3.50
2019-03-19T15:23:06.117Z,3.29
2019-03-19T15:28:15.000Z,3.53
2019-03-19T15:33:23.904Z,2.56
2019-03-19T15:38:32.771Z,3.05
2019-03-19T15:43:41.644Z,3.19
2019-03-19T15:48:50.524Z,2.92
2019-03-19T15:53:59.447Z,3.24
2019-03-19T15:59:08.623Z,3.38
2019-03-19T16:04:17.467Z,3.19
2019-03-19T16:09:26.320Z,3.18
2019-03-19T16:14:35.235Z,3.18
2019-03-19T16:19:44.122Z,3.38
2019-03-19T16:24:53.230Z,3.29
2019-03-19T16:30:02.103Z,3.01
2019-03-19T16:35:10.987Z,2.95
2019-03-19T16:40:19.898Z,2.85
2019-03-19T16:45:28.827Z,3.08
2019-03-19T16:50:37.703Z,2.83
2019-03-19T16:55:46.593Z,3.33
2019-03-19T17:00:55.445Z,3.02
2019-03-19T17:06:04.384Z,3.53
2019-03-19T17:11:13.288Z,4.19
2019-03-19T17:16:22.245Z,3.58
2019-03-19T17:21:31.115Z,3.75
2019-03-19T17:26:40.128Z,3.31
2019-03-19T17:31:48.987Z,3.99
2019-03-19T17:36:58.002Z,4.16
2019-03-19T17:42:06.886Z,3.97
2019-03-19T17:47:15.771Z,4.30
2019-03-19T17:52:24.674Z,4.80
2019-03-19T17:57:33.568Z,4.14
2019-03-19T18:02:42.438Z,4.23
2019-03-19T18:07:51.352Z,4.53
2019-03-19T18:13:00.233Z,4.33
2019-03-19T18:18:09.171Z,4.29
2019-03-19T18:23:18.028Z,4.92
2019-03-19T18:28:26.921Z,4.75
2019-03-19T18:33:35.898Z,5.21
2019-03-19T18:38:44.936Z,5.02
2019-03-19T18:43:53.835Z,5.63
2019-03-19T18:49:02.697Z,5.97
2019-03-19T18:54:11.577Z,8.55
2019-03-19T18:59:20.451Z,9.21
2019-03-19T19:04:29.324Z,8.23
2019-03-19T19:09:38.229Z,8.33
2019-03-19T19:14:47.107Z,8.17
2019-03-19T19:19:56.013Z,6.87
2019-03-19T19:25:04.922Z,6.87
2019-03-19T19:30:13.772Z,6.26
2019-03-19T19:35:22.680Z,6.36
2019-03-19T19:40:31.653Z,6.94
2019-03-19T19:45:40.587Z,7.47
2019-03-19T19:50:49.515Z,6.91
2019-03-19T19:55:58.427Z,8.07
2019-03-19T20:01:07.325Z,8.50
2019-03-19T20:06:16.229Z,8.08
2019-03-19T20:11:25.147Z,7.36
2019-03-19T20:16:34.017Z,7.52
2019-03-19T20:21:42.936Z,7.33
2019-03-19T20:26:51.791Z,9.24
2019-03-19T20:32:00.690Z,7.41
2019-03-19T20:37:09.577Z,9.34
2019-03-19T20:42:18.462Z,9.60
2019-03-19T20:47:27.311Z,10.01
2019-03-19T20:52:36.205Z,10.44
2019-03-19T20:57:45.503Z,11.06
2019-03-19T21:04:47.777Z,13.47
2019-03-19T21:09:46.785Z,14.91
2019-03-19T21:14:55.833Z,16.28
2019-03-19T21:20:04.826Z,14.67
2019-03-19T21:25:13.988Z,14.38
2019-03-19T21:30:22.929Z,13.91
2019-03-19T21:35:31.943Z,14.31
2019-03-19T21:40:40.933Z,14.78
2019-03-19T21:45:49.975Z,13.58
2019-03-19T21:50:59.016Z,14.63
2019-03-19T21:56:07.980Z,15.31
2019-03-19T22:01:17.063Z,15.75
2019-03-19T22:06:26.193Z,16.23
2019-03-19T22:11:35.237Z,16.51
2019-03-19T22:16:44.277Z,15.66
2019-03-19T22:21:53.301Z,16.82
2019-03-19T22:27:02.377Z,15.73
2019-03-19T22:32:11.408Z,16.28
2019-03-19T22:37:20.465Z,16.59
2019-03-19T22:42:41.495Z,17.10
2019-03-19T22:47:31.777Z,17.26
2019-03-19T22:52:30.763Z,17.89
2019-03-19T22:57:39.818Z,17.15
2019-03-19T23:02:48.966Z,18.25
2019-03-19T23:07:58.005Z,18.88
2019-03-19T23:13:07.077Z,18.26
2019-03-19T23:18:16.099Z,18.66
2019-03-19T23:23:25.149Z,19.70
2019-03-19T23:28:34.088Z,19.70
2019-03-19T23:33:43.149Z,20.39
2019-03-19T23:38:52.179Z,20.73
2019-03-19T23:44:01.156Z,20.14
2019-03-19T23:49:10.200Z,20.92
2019-03-19T23:54:19.269Z,20.52
2019-03-19T23:59:28.295Z,20.89
